sensor_id;sensor_type;location;lat;lon;timestamp;pressure;altitude;pressure_sealevel;temperature;humidity
68807;BME280;55800;54.272;18.558;2024-03-02T00:01:36;100608.00;;;8.26;92.16
68807;BME280;55800;54.272;18.558;2024-03-02T00:04:06;100609.75;;;8.27;92.53
68807;BME280;55800;54.272;18.558;2024-03-02T00:06:36;100607.09;;;8.27;92.24
68807;BME280;55800;54.272;18.558;2024-03-02T00:09:10;100608.88;;;8.26;92.24
68807;BME280;55800;54.272;18.558;2024-03-02T00:11:40;100598.16;;;8.28;92.19
68807;BME280;55800;54.272;18.558;2024-03-02T00:14:12;100598.97;;;8.30;92.26
68807;BME280;55800;54.272;18.558;2024-03-02T00:16:42;100602.56;;;8.29;92.11
68807;BME280;55800;54.272;18.558;2024-03-02T00:19:13;100595.44;;;8.29;92.15
68807;BME280;55800;54.272;18.558;2024-03-02T00:21:42;100604.31;;;8.30;92.26
68807;BME280;55800;54.272;18.558;2024-03-02T00:24:21;100601.63;;;8.30;92.13
68807;BME280;55800;54.272;18.558;2024-03-02T00:26:53;100596.25;;;8.31;92.14
68807;BME280;55800;54.272;18.558;2024-03-02T00:29:24;100604.38;;;8.28;92.12
68807;BME280;55800;54.272;18.558;2024-03-02T00:31:53;100603.47;;;8.28;92.28
68807;BME280;55800;54.272;18.558;2024-03-02T00:34:24;100597.25;;;8.29;92.24
68807;BME280;55800;54.272;18.558;2024-03-02T00:36:53;100591.91;;;8.29;92.11
68807;BME280;55800;54.272;18.558;2024-03-02T00:39:28;100588.44;;;8.27;92.20
68807;BME280;55800;54.272;18.558;2024-03-02T00:41:58;100579.50;;;8.28;92.25
68807;BME280;55800;54.272;18.558;2024-03-02T00:44:30;100575.13;;;8.27;92.28
68807;BME280;55800;54.272;18.558;2024-03-02T00:47:03;100584.03;;;8.26;92.31
68807;BME280;55800;54.272;18.558;2024-03-02T00:49:33;100579.56;;;8.26;92.34
68807;BME280;55800;54.272;18.558;2024-03-02T00:52:06;100581.28;;;8.29;92.31
68807;BME280;55800;54.272;18.558;2024-03-02T00:54:36;100575.94;;;8.29;92.12
68807;BME280;55800;54.272;18.558;2024-03-02T00:57:05;100577.78;;;8.27;92.23
68807;BME280;55800;54.272;18.558;2024-03-02T00:59:36;100576.03;;;8.26;92.32
68807;BME280;55800;54.272;18.558;2024-03-02T01:02:06;100576.78;;;8.29;92.01
68807;BME280;55800;54.272;18.558;2024-03-02T01:04:35;100568.91;;;8.26;92.00
68807;BME280;55800;54.272;18.558;2024-03-02T01:07:04;100568.13;;;8.23;92.24
68807;BME280;55800;54.272;18.558;2024-03-02T01:09:34;100556.53;;;8.24;92.09
68807;BME280;55800;54.272;18.558;2024-03-02T01:12:04;100565.47;;;8.23;92.09
68807;BME280;55800;54.272;18.558;2024-03-02T01:14:35;100573.38;;;8.26;92.07
68807;BME280;55800;54.272;18.558;2024-03-02T01:17:05;100575.16;;;8.25;92.02
68807;BME280;55800;54.272;18.558;2024-03-02T01:19:34;100577.78;;;8.27;92.01
68807;BME280;55800;54.272;18.558;2024-03-02T01:22:04;100574.28;;;8.25;91.94
68807;BME280;55800;54.272;18.558;2024-03-02T01:24:33;100564.59;;;8.22;91.95
68807;BME280;55800;54.272;18.558;2024-03-02T01:27:03;100566.38;;;8.22;92.06
68807;BME280;55800;54.272;18.558;2024-03-02T01:29:32;100568.16;;;8.21;92.00
68807;BME280;55800;54.272;18.558;2024-03-02T01:32:04;100566.44;;;8.20;91.98
68807;BME280;55800;54.272;18.558;2024-03-02T01:34:33;100566.38;;;8.22;91.99
68807;BME280;55800;54.272;18.558;2024-03-02T01:37:03;100569.94;;;8.21;92.07
68807;BME280;55800;54.272;18.558;2024-03-02T01:39:32;100560.22;;;8.20;92.02
68807;BME280;55800;54.272;18.558;2024-03-02T01:42:01;100565.63;;;8.18;92.04
68807;BME280;55800;54.272;18.558;2024-03-02T01:44:31;100562.06;;;8.18;92.02
68807;BME280;55800;54.272;18.558;2024-03-02T01:47:02;100562.94;;;8.18;92.01
68807;BME280;55800;54.272;18.558;2024-03-02T01:49:32;100553.13;;;8.19;92.02
68807;BME280;55800;54.272;18.558;2024-03-02T01:52:02;100550.47;;;8.19;91.90
68807;BME280;55800;54.272;18.558;2024-03-02T01:54:31;100550.47;;;8.19;91.95
68807;BME280;55800;54.272;18.558;2024-03-02T01:57:01;100560.31;;;8.17;91.98
68807;BME280;55800;54.272;18.558;2024-03-02T01:59:31;100565.63;;;8.17;91.89
68807;BME280;55800;54.272;18.558;2024-03-02T02:02:01;100565.63;;;8.17;91.93
68807;BME280;55800;54.272;18.558;2024-03-02T02:04:31;100544.31;;;8.18;91.88
68807;BME280;55800;54.272;18.558;2024-03-02T02:07:00;100552.31;;;8.17;91.88
68807;BME280;55800;54.272;18.558;2024-03-02T02:09:30;100552.38;;;8.15;91.85
68807;BME280;55800;54.272;18.558;2024-03-02T02:11:59;100550.66;;;8.14;92.03
68807;BME280;55800;54.272;18.558;2024-03-02T02:14:29;100558.69;;;8.13;91.92
68807;BME280;55800;54.272;18.558;2024-03-02T02:16:58;100563.09;;;8.14;92.10
68807;BME280;55800;54.272;18.558;2024-03-02T02:19:29;100561.34;;;8.13;91.94
68807;BME280;55800;54.272;18.558;2024-03-02T02:22:00;100558.59;;;8.16;92.00
68807;BME280;55800;54.272;18.558;2024-03-02T02:24:30;100551.50;;;8.15;91.83
68807;BME280;55800;54.272;18.558;2024-03-02T02:26:59;100560.38;;;8.15;91.84
68807;BME280;55800;54.272;18.558;2024-03-02T02:29:29;100560.44;;;8.14;91.75
68807;BME280;55800;54.272;18.558;2024-03-02T02:31:58;100566.63;;;8.14;91.80
68807;BME280;55800;54.272;18.558;2024-03-02T02:34:28;100560.44;;;8.14;91.75
68807;BME280;55800;54.272;18.558;2024-03-02T02:36:58;100548.03;;;8.13;91.77
68807;BME280;55800;54.272;18.558;2024-03-02T02:39:28;100550.75;;;8.11;91.81
68807;BME280;55800;54.272;18.558;2024-03-02T02:41:58;100544.53;;;8.11;91.81
68807;BME280;55800;54.272;18.558;2024-03-02T02:44:29;100551.63;;;8.12;91.88
68807;BME280;55800;54.272;18.558;2024-03-02T02:46:58;100541.81;;;8.12;91.82
68807;BME280;55800;54.272;18.558;2024-03-02T02:49:28;100533.88;;;8.11;91.76
68807;BME280;55800;54.272;18.558;2024-03-02T02:51:58;100538.34;;;8.10;91.74
68807;BME280;55800;54.272;18.558;2024-03-02T02:54:28;100534.81;;;8.10;91.76
68807;BME280;55800;54.272;18.558;2024-03-02T02:56:57;100528.56;;;8.11;91.78
68807;BME280;55800;54.272;18.558;2024-03-02T02:59:27;100531.22;;;8.11;91.64
68807;BME280;55800;54.272;18.558;2024-03-02T03:01:56;100536.50;;;8.12;91.67
68807;BME280;55800;54.272;18.558;2024-03-02T03:04:26;100537.38;;;8.13;91.55
68807;BME280;55800;54.272;18.558;2024-03-02T03:06:55;100528.56;;;8.11;91.62
68807;BME280;55800;54.272;18.558;2024-03-02T03:09:26;100525.97;;;8.09;91.70
68807;BME280;55800;54.272;18.558;2024-03-02T03:11:56;100527.69;;;8.10;91.74
68807;BME280;55800;54.272;18.558;2024-03-02T03:14:25;100533.88;;;8.11;91.56
68807;BME280;55800;54.272;18.558;2024-03-02T03:16:55;100532.03;;;8.13;91.73
68807;BME280;55800;54.272;18.558;2024-03-02T03:19:24;100533.88;;;8.11;91.44
68807;BME280;55800;54.272;18.558;2024-03-02T03:21:54;100527.69;;;8.10;91.71
68807;BME280;55800;54.272;18.558;2024-03-02T03:24:23;100520.63;;;8.09;91.59
68807;BME280;55800;54.272;18.558;2024-03-02T03:26:54;100517.16;;;8.07;92.09
68807;BME280;55800;54.272;18.558;2024-03-02T03:29:24;100513.63;;;8.07;91.82
68807;BME280;55800;54.272;18.558;2024-03-02T03:31:53;100514.56;;;8.06;91.75
68807;BME280;55800;54.272;18.558;2024-03-02T03:34:22;100511.84;;;8.07;91.67
68807;BME280;55800;54.272;18.558;2024-03-02T03:36:52;100502.97;;;8.07;91.63
68807;BME280;55800;54.272;18.558;2024-03-02T03:39:21;100518.03;;;8.08;91.71
68807;BME280;55800;54.272;18.558;2024-03-02T03:41:51;100504.75;;;8.06;91.67
68807;BME280;55800;54.272;18.558;2024-03-02T03:44:21;100506.56;;;8.06;91.60
68807;BME280;55800;54.272;18.558;2024-03-02T03:46:51;100510.22;;;8.02;91.62
68807;BME280;55800;54.272;18.558;2024-03-02T03:49:20;100512.88;;;8.02;91.66
68807;BME280;55800;54.272;18.558;2024-03-02T03:51:49;100516.47;;;8.01;91.64
68807;BME280;55800;54.272;18.558;2024-03-02T03:54:19;100519.16;;;8.01;91.77
68807;BME280;55800;54.272;18.558;2024-03-02T03:56:48;100514.72;;;8.00;91.49
68807;BME280;55800;54.272;18.558;2024-03-02T03:59:18;100530.69;;;8.00;91.61
68807;BME280;55800;54.272;18.558;2024-03-02T04:01:48;100544.06;;;7.98;91.65
68807;BME280;55800;54.272;18.558;2024-03-02T04:04:18;100545.84;;;7.99;91.49
68807;BME280;55800;54.272;18.558;2024-03-02T04:06:48;100543.16;;;7.99;91.58
68807;BME280;55800;54.272;18.558;2024-03-02T04:09:17;100552.88;;;8.00;91.43
68807;BME280;55800;54.272;18.558;2024-03-02T04:11:47;100545.84;;;7.99;91.46
68807;BME280;55800;54.272;18.558;2024-03-02T04:14:16;100546.69;;;8.00;91.52
68807;BME280;55800;54.272;18.558;2024-03-02T04:16:45;100544.13;;;7.97;91.38
68807;BME280;55800;54.272;18.558;2024-03-02T04:19:16;100545.03;;;7.96;91.75
68807;BME280;55800;54.272;18.558;2024-03-02T04:21:45;100545.03;;;7.96;91.65
68807;BME280;55800;54.272;18.558;2024-03-02T04:24:14;100542.50;;;7.93;91.59
68807;BME280;55800;54.272;18.558;2024-03-02T04:26:44;100540.72;;;7.92;91.52
68807;BME280;55800;54.272;18.558;2024-03-02T04:29:13;100549.59;;;7.92;91.75
68807;BME280;55800;54.272;18.558;2024-03-02T04:31:43;100544.28;;;7.92;91.55
68807;BME280;55800;54.272;18.558;2024-03-02T04:34:12;100552.31;;;7.91;91.79
68807;BME280;55800;54.272;18.558;2024-03-02T04:36:43;100545.25;;;7.89;91.66
68807;BME280;55800;54.272;18.558;2024-03-02T04:39:12;100551.44;;;7.90;91.73
68807;BME280;55800;54.272;18.558;2024-03-02T04:41:42;100547.84;;;7.91;91.80
68807;BME280;55800;54.272;18.558;2024-03-02T04:44:11;100545.25;;;7.89;91.86
68807;BME280;55800;54.272;18.558;2024-03-02T04:46:41;100554.97;;;7.91;91.73
68807;BME280;55800;54.272;18.558;2024-03-02T04:49:10;100547.91;;;7.89;91.61
68807;BME280;55800;54.272;18.558;2024-03-02T04:51:39;100547.09;;;7.87;91.73
68807;BME280;55800;54.272;18.558;2024-03-02T04:54:10;100538.28;;;7.85;91.56
68807;BME280;55800;54.272;18.558;2024-03-02T04:56:42;100536.50;;;7.86;91.61
68807;BME280;55800;54.272;18.558;2024-03-02T04:59:18;100529.38;;;7.86;91.67
68807;BME280;55800;54.272;18.558;2024-03-02T05:01:48;100537.38;;;7.86;91.54
68807;BME280;55800;54.272;18.558;2024-03-02T05:04:17;100531.13;;;7.87;91.52
68807;BME280;55800;54.272;18.558;2024-03-02T05:06:47;100538.19;;;7.88;91.46
68807;BME280;55800;54.272;18.558;2024-03-02T05:09:22;100539.91;;;7.89;91.39
68807;BME280;55800;54.272;18.558;2024-03-02T05:11:52;100532.88;;;7.88;91.45
68807;BME280;55800;54.272;18.558;2024-03-02T05:14:57;100533.72;;;7.89;91.28
68807;BME280;55800;54.272;18.558;2024-03-02T05:17:26;100533.78;;;7.87;91.24
68807;BME280;55800;54.272;18.558;2024-03-02T05:19:56;100538.19;;;7.88;91.30
68807;BME280;55800;54.272;18.558;2024-03-02T05:22:26;100536.44;;;7.87;91.27
68807;BME280;55800;54.272;18.558;2024-03-02T05:24:57;100539.03;;;7.89;91.15
68807;BME280;55800;54.272;18.558;2024-03-02T05:27:27;100547.09;;;7.87;91.27
68807;BME280;55800;54.272;18.558;2024-03-02T05:29:57;100546.19;;;7.88;91.23
68807;BME280;55800;54.272;18.558;2024-03-02T05:32:26;100547.09;;;7.87;91.08
68807;BME280;55800;54.272;18.558;2024-03-02T05:34:56;100548.91;;;7.85;91.25
68807;BME280;55800;54.272;18.558;2024-03-02T05:37:25;100552.47;;;7.86;91.29
68807;BME280;55800;54.272;18.558;2024-03-02T05:39:56;100557.84;;;7.84;91.24
68807;BME280;55800;54.272;18.558;2024-03-02T05:42:26;100563.16;;;7.84;91.32
68807;BME280;55800;54.272;18.558;2024-03-02T05:44:55;100575.59;;;7.84;91.21
68807;BME280;55800;54.272;18.558;2024-03-02T05:47:25;100572.00;;;7.85;91.30
68807;BME280;55800;54.272;18.558;2024-03-02T05:49:55;100580.03;;;7.83;91.48
68807;BME280;55800;54.272;18.558;2024-03-02T05:52:25;100577.38;;;7.83;91.34
68807;BME280;55800;54.272;18.558;2024-03-02T05:54:55;100594.22;;;7.84;91.17
68807;BME280;55800;54.272;18.558;2024-03-02T05:57:25;100568.56;;;7.81;91.29
68807;BME280;55800;54.272;18.558;2024-03-02T06:00:14;100579.22;;;7.81;91.25
68807;BME280;55800;54.272;18.558;2024-03-02T06:02:46;100585.41;;;7.82;91.24
68807;BME280;55800;54.272;18.558;2024-03-02T06:05:15;100587.16;;;7.83;91.28
68807;BME280;55800;54.272;18.558;2024-03-02T06:07:45;100588.03;;;7.83;91.29
68807;BME280;55800;54.272;18.558;2024-03-02T06:10:16;100589.88;;;7.81;91.37
68807;BME280;55800;54.272;18.558;2024-03-02T06:12:46;100588.03;;;7.83;91.25
68807;BME280;55800;54.272;18.558;2024-03-02T06:15:15;100594.22;;;7.84;91.52
68807;BME280;55800;54.272;18.558;2024-03-02T06:17:45;100593.34;;;7.83;91.81
68807;BME280;55800;54.272;18.558;2024-03-02T06:20:14;100589.88;;;7.81;91.88
68807;BME280;55800;54.272;18.558;2024-03-02T06:22:44;100598.63;;;7.85;91.39
68807;BME280;55800;54.272;18.558;2024-03-02T06:25:15;100596.00;;;7.83;91.71
68807;BME280;55800;54.272;18.558;2024-03-02T06:27:44;100595.19;;;7.81;91.68
68807;BME280;55800;54.272;18.558;2024-03-02T06:30:14;100593.34;;;7.83;91.77
68807;BME280;55800;54.272;18.558;2024-03-02T06:32:44;100585.41;;;7.82;91.77
68807;BME280;55800;54.272;18.558;2024-03-02T06:35:13;100589.88;;;7.81;91.56
68807;BME280;55800;54.272;18.558;2024-03-02T06:37:43;100584.53;;;7.81;91.68
68807;BME280;55800;54.272;18.558;2024-03-02T06:40:12;100580.91;;;7.84;91.79
68807;BME280;55800;54.272;18.558;2024-03-02T06:42:43;100586.25;;;7.84;91.91
68807;BME280;55800;54.272;18.558;2024-03-02T06:45:13;100593.34;;;7.83;92.17
68807;BME280;55800;54.272;18.558;2024-03-02T06:47:42;100595.19;;;7.81;92.22
68807;BME280;55800;54.272;18.558;2024-03-02T06:50:11;100589.78;;;7.84;92.51
68807;BME280;55800;54.272;18.558;2024-03-02T06:52:41;100594.13;;;7.87;92.38
68807;BME280;55800;54.272;18.558;2024-03-02T06:55:11;100591.44;;;7.88;92.35
68807;BME280;55800;54.272;18.558;2024-03-02T06:57:41;100588.66;;;7.92;92.33
68807;BME280;55800;54.272;18.558;2024-03-02T07:00:13;100582.44;;;7.93;92.43
68807;BME280;55800;54.272;18.558;2024-03-02T07:02:43;100592.00;;;7.98;92.57
68807;BME280;55800;54.272;18.558;2024-03-02T07:05:12;100587.44;;;8.02;92.51
68807;BME280;55800;54.272;18.558;2024-03-02T07:07:41;100590.88;;;8.05;92.65
68807;BME280;55800;54.272;18.558;2024-03-02T07:10:11;100588.09;;;8.10;93.22
68807;BME280;55800;54.272;18.558;2024-03-02T07:12:40;100587.16;;;8.11;93.07
68807;BME280;55800;54.272;18.558;2024-03-02T07:15:11;100581.63;;;8.17;93.33
68807;BME280;55800;54.272;18.558;2024-03-02T07:17:57;100592.09;;;8.23;93.05
68807;BME280;55800;54.272;18.558;2024-03-02T07:20:26;100590.16;;;8.28;93.38
68807;BME280;55800;54.272;18.558;2024-03-02T07:22:56;100602.47;;;8.32;93.24
68807;BME280;55800;54.272;18.558;2024-03-02T07:25:26;100604.91;;;8.38;93.34
68807;BME280;55800;54.272;18.558;2024-03-02T07:27:58;100608.31;;;8.43;93.20
68807;BME280;55800;54.272;18.558;2024-03-02T07:30:29;100608.16;;;8.47;93.22
68807;BME280;55800;54.272;18.558;2024-03-02T07:33:01;100608.91;;;8.51;93.09
68807;BME280;55800;54.272;18.558;2024-03-02T07:35:30;100591.06;;;8.54;93.14
68807;BME280;55800;54.272;18.558;2024-03-02T07:38:00;100608.69;;;8.57;93.06
68807;BME280;55800;54.272;18.558;2024-03-02T07:40:30;100607.69;;;8.61;92.95
68807;BME280;55800;54.272;18.558;2024-03-02T07:42:59;100629.00;;;8.61;92.94
68807;BME280;55800;54.272;18.558;2024-03-02T07:45:30;100625.38;;;8.63;92.92
68807;BME280;55800;54.272;18.558;2024-03-02T07:48:00;100613.84;;;8.63;92.86
68807;BME280;55800;54.272;18.558;2024-03-02T07:50:29;100619.06;;;8.66;92.43
68807;BME280;55800;54.272;18.558;2024-03-02T07:52:59;100618.25;;;8.64;92.43
68807;BME280;55800;54.272;18.558;2024-03-02T07:55:28;100618.31;;;8.62;92.47
68807;BME280;55800;54.272;18.558;2024-03-02T07:57:58;100627.34;;;8.58;92.48
68807;BME280;55800;54.272;18.558;2024-03-02T08:00:29;100630.97;;;8.56;92.64
68807;BME280;55800;54.272;18.558;2024-03-02T08:02:59;100625.50;;;8.59;92.40
68807;BME280;55800;54.272;18.558;2024-03-02T08:05:29;100624.66;;;8.58;92.35
68807;BME280;55800;54.272;18.558;2024-03-02T08:07:59;100630.03;;;8.57;92.49
68807;BME280;55800;54.272;18.558;2024-03-02T08:10:29;100641.56;;;8.57;92.49
68807;BME280;55800;54.272;18.558;2024-03-02T08:12:58;100648.69;;;8.57;92.47
68807;BME280;55800;54.272;18.558;2024-03-02T08:15:29;100637.09;;;8.58;92.52
68807;BME280;55800;54.272;18.558;2024-03-02T08:17:59;100629.06;;;8.59;92.52
68807;BME280;55800;54.272;18.558;2024-03-02T08:20:28;100628.16;;;8.60;92.61
68807;BME280;55800;54.272;18.558;2024-03-02T08:22:59;100633.41;;;8.62;92.65
68807;BME280;55800;54.272;18.558;2024-03-02T08:25:29;100622.69;;;8.63;92.73
68807;BME280;55800;54.272;18.558;2024-03-02T08:27:59;100636.84;;;8.65;92.74
68807;BME280;55800;54.272;18.558;2024-03-02T08:30:30;100618.97;;;8.69;92.89
68807;BME280;55800;54.272;18.558;2024-03-02T08:33:00;100625.06;;;8.73;92.88
68807;BME280;55800;54.272;18.558;2024-03-02T08:35:29;100638.91;;;8.84;92.43
68807;BME280;55800;54.272;18.558;2024-03-02T08:38:04;100635.25;;;8.86;92.15
68807;BME280;55800;54.272;18.558;2024-03-02T08:40:33;100632.63;;;8.85;92.63
68807;BME280;55800;54.272;18.558;2024-03-02T08:43:03;100638.78;;;8.87;92.83
68807;BME280;55800;54.272;18.558;2024-03-02T08:45:34;100636.09;;;8.87;92.76
68807;BME280;55800;54.272;18.558;2024-03-02T08:48:05;100639.66;;;8.87;92.81
68807;BME280;55800;54.272;18.558;2024-03-02T08:50:35;100636.91;;;8.89;92.76
68807;BME280;55800;54.272;18.558;2024-03-02T08:53:04;100633.34;;;8.90;92.74
68807;BME280;55800;54.272;18.558;2024-03-02T08:55:33;100631.66;;;8.87;92.84
68807;BME280;55800;54.272;18.558;2024-03-02T08:58:03;100633.28;;;8.91;93.00
68807;BME280;55800;54.272;18.558;2024-03-02T09:00:35;100630.53;;;8.94;92.64
68807;BME280;55800;54.272;18.558;2024-03-02T09:03:05;100640.38;;;8.92;92.68
68807;BME280;55800;54.272;18.558;2024-03-02T09:05:35;100641.28;;;8.91;92.82
68807;BME280;55800;54.272;18.558;2024-03-02T09:08:05;100639.44;;;8.93;92.96
68807;BME280;55800;54.272;18.558;2024-03-02T09:10:34;100647.34;;;8.96;93.07
68807;BME280;55800;54.272;18.558;2024-03-02T09:13:04;100641.94;;;8.98;92.67
68807;BME280;55800;54.272;18.558;2024-03-02T09:15:35;100633.06;;;8.97;92.81
68807;BME280;55800;54.272;18.558;2024-03-02T09:18:07;100638.41;;;8.97;92.97
68807;BME280;55800;54.272;18.558;2024-03-02T09:20:36;100642.69;;;9.01;93.12
68807;BME280;55800;54.272;18.558;2024-03-02T09:23:06;100636.34;;;9.05;92.96
68807;BME280;55800;54.272;18.558;2024-03-02T09:25:35;100638.97;;;9.07;93.11
68807;BME280;55800;54.272;18.558;2024-03-02T09:28:05;100646.00;;;9.09;92.66
68807;BME280;55800;54.272;18.558;2024-03-02T09:30:37;100662.66;;;9.16;92.99
68807;BME280;55800;54.272;18.558;2024-03-02T09:33:06;100661.78;;;9.15;92.81
68807;BME280;55800;54.272;18.558;2024-03-02T09:35:39;100657.13;;;9.20;93.02
68807;BME280;55800;54.272;18.558;2024-03-02T09:38:08;100667.75;;;9.22;93.02
68807;BME280;55800;54.272;18.558;2024-03-02T09:40:37;100671.19;;;9.25;93.09
68807;BME280;55800;54.272;18.558;2024-03-02T09:43:07;100670.22;;;9.28;93.11
68807;BME280;55800;54.272;18.558;2024-03-02T09:45:38;100661.22;;;9.30;93.08
68807;BME280;55800;54.272;18.558;2024-03-02T09:48:08;100673.53;;;9.34;93.15
68807;BME280;55800;54.272;18.558;2024-03-02T09:50:38;100676.88;;;9.39;93.13
68807;BME280;55800;54.272;18.558;2024-03-02T09:53:08;100676.72;;;9.44;93.12
68807;BME280;55800;54.272;18.558;2024-03-02T09:55:37;100677.44;;;9.49;93.31
68807;BME280;55800;54.272;18.558;2024-03-02T09:58:11;100683.44;;;9.56;92.98
68807;BME280;55800;54.272;18.558;2024-03-02T10:00:41;100680.63;;;9.59;93.13
68807;BME280;55800;54.272;18.558;2024-03-02T10:03:12;100677.97;;;9.59;92.78
68807;BME280;55800;54.272;18.558;2024-03-02T10:05:42;100678.72;;;9.62;93.21
68807;BME280;55800;54.272;18.558;2024-03-02T10:08:12;100668.75;;;9.67;93.19
68807;BME280;55800;54.272;18.558;2024-03-02T10:10:42;100668.69;;;9.69;92.98
68807;BME280;55800;54.272;18.558;2024-03-02T10:13:13;100668.56;;;9.72;93.20
68807;BME280;55800;54.272;18.558;2024-03-02T10:15:44;100673.69;;;9.78;93.19
68807;BME280;55800;54.272;18.558;2024-03-02T10:18:15;100684.00;;;9.87;92.55
68807;BME280;55800;54.272;18.558;2024-03-02T10:21:13;100676.72;;;9.92;92.71
68807;BME280;55800;54.272;18.558;2024-03-02T10:23:42;100672.94;;;9.97;92.53
68807;BME280;55800;54.272;18.558;2024-03-02T10:26:17;100667.47;;;10.00;93.13
68807;BME280;55800;54.272;18.558;2024-03-02T10:28:47;100686.81;;;10.07;93.15
68807;BME280;55800;54.272;18.558;2024-03-02T10:31:20;100679.47;;;10.13;93.19
68807;BME280;55800;54.272;18.558;2024-03-02T10:33:55;100681.91;;;10.19;92.96
68807;BME280;55800;54.272;18.558;2024-03-02T10:36:26;100667.41;;;10.25;92.95
68807;BME280;55800;54.272;18.558;2024-03-02T10:38:57;100675.97;;;10.33;93.17
68807;BME280;55800;54.272;18.558;2024-03-02T10:41:27;100671.34;;;10.38;93.19
68807;BME280;55800;54.272;18.558;2024-03-02T10:44:00;100675.56;;;10.44;93.33
68807;BME280;55800;54.272;18.558;2024-03-02T10:46:33;100667.25;;;10.51;92.44
68807;BME280;55800;54.272;18.558;2024-03-02T10:49:04;100670.72;;;10.53;92.16
68807;BME280;55800;54.272;18.558;2024-03-02T10:51:36;100667.09;;;10.54;92.79
68807;BME280;55800;54.272;18.558;2024-03-02T10:54:06;100667.72;;;10.61;93.06
68807;BME280;55800;54.272;18.558;2024-03-02T10:56:39;100663.00;;;10.67;93.20
68807;BME280;55800;54.272;18.558;2024-03-02T10:59:16;100661.88;;;10.73;92.36
68807;BME280;55800;54.272;18.558;2024-03-02T11:01:51;100656.19;;;10.80;93.18
68807;BME280;55800;54.272;18.558;2024-03-02T11:04:25;100656.81;;;10.87;93.50
68807;BME280;55800;54.272;18.558;2024-03-02T11:07:00;100657.44;;;10.93;93.33
68807;BME280;55800;54.272;18.558;2024-03-02T11:09:34;100651.75;;;11.01;93.45
68807;BME280;55800;54.272;18.558;2024-03-02T11:12:12;100655.97;;;11.07;93.21
68807;BME280;55800;54.272;18.558;2024-03-02T11:14:43;100645.91;;;11.12;93.24
68807;BME280;55800;54.272;18.558;2024-03-02T11:17:14;100643.03;;;11.16;93.32
68807;BME280;55800;54.272;18.558;2024-03-02T11:19:45;100640.09;;;11.22;92.94
68807;BME280;55800;54.272;18.558;2024-03-02T11:22:15;100641.66;;;11.28;92.61
68807;BME280;55800;54.272;18.558;2024-03-02T11:24:49;100639.63;;;11.33;92.89
68807;BME280;55800;54.272;18.558;2024-03-02T11:30:49;100650.88;;;11.41;91.98
68807;BME280;55800;54.272;18.558;2024-03-02T11:33:27;100637.25;;;11.45;93.06
68807;BME280;55800;54.272;18.558;2024-03-02T11:35:59;100643.38;;;11.49;93.31
68807;BME280;55800;54.272;18.558;2024-03-02T11:38:31;100649.38;;;11.54;93.17
68807;BME280;55800;54.272;18.558;2024-03-02T11:41:02;100636.66;;;11.59;92.85
68807;BME280;55800;54.272;18.558;2024-03-02T11:43:38;100624.72;;;11.66;92.68
68807;BME280;55800;54.272;18.558;2024-03-02T11:46:08;100633.59;;;11.68;92.67
68807;BME280;55800;54.272;18.558;2024-03-02T11:48:40;100634.53;;;11.67;92.73
68807;BME280;55800;54.272;18.558;2024-03-02T11:51:10;100627.00;;;11.75;92.53
68807;BME280;55800;54.272;18.558;2024-03-02T11:53:41;100639.28;;;11.79;92.63
68807;BME280;55800;54.272;18.558;2024-03-02T11:56:12;100640.13;;;11.81;92.19
68807;BME280;55800;54.272;18.558;2024-03-02T11:58:43;100634.53;;;11.86;92.81
68807;BME280;55800;54.272;18.558;2024-03-02T12:01:14;100646.00;;;11.89;92.85
68807;BME280;55800;54.272;18.558;2024-03-02T12:03:45;100639.66;;;11.90;92.93
68807;BME280;55800;54.272;18.558;2024-03-02T12:06:15;100647.56;;;11.93;92.95
68807;BME280;55800;54.272;18.558;2024-03-02T12:08:47;100635.66;;;12.00;92.09
68807;BME280;55800;54.272;18.558;2024-03-02T12:11:21;100634.69;;;12.01;92.26
68807;BME280;55800;54.272;18.558;2024-03-02T12:13:52;100626.50;;;12.04;92.32
68807;BME280;55800;54.272;18.558;2024-03-02T12:16:25;100635.34;;;12.06;92.38
68807;BME280;55800;54.272;18.558;2024-03-02T12:18:56;100639.53;;;12.12;92.03
68807;BME280;55800;54.272;18.558;2024-03-02T12:21:26;100635.75;;;12.16;91.35
68807;BME280;55800;54.272;18.558;2024-03-02T12:23:56;100648.22;;;12.17;91.99
68807;BME280;55800;54.272;18.558;2024-03-02T12:26:26;100648.94;;;12.20;91.94
68807;BME280;55800;54.272;18.558;2024-03-02T12:28:55;100639.00;;;12.22;92.25
68807;BME280;55800;54.272;18.558;2024-03-02T12:31:25;100640.69;;;12.25;92.34
68807;BME280;55800;54.272;18.558;2024-03-02T12:33:56;100650.41;;;12.27;92.28
68807;BME280;55800;54.272;18.558;2024-03-02T12:36:26;100644.88;;;12.30;91.70
68807;BME280;55800;54.272;18.558;2024-03-02T12:38:56;100640.47;;;12.29;92.57
68807;BME280;55800;54.272;18.558;2024-03-02T12:41:25;100632.34;;;12.31;92.25
68807;BME280;55800;54.272;18.558;2024-03-02T12:43:57;100637.63;;;12.32;92.16
68807;BME280;55800;54.272;18.558;2024-03-02T12:46:27;100638.50;;;12.33;92.19
68807;BME280;55800;54.272;18.558;2024-03-02T12:48:57;100638.50;;;12.33;92.02
68807;BME280;55800;54.272;18.558;2024-03-02T12:51:27;100635.69;;;12.36;92.79
68807;BME280;55800;54.272;18.558;2024-03-02T12:53:56;100638.28;;;12.37;93.27
68807;BME280;55800;54.272;18.558;2024-03-02T12:56:26;100634.72;;;12.37;92.62
68807;BME280;55800;54.272;18.558;2024-03-02T12:58:56;100634.41;;;12.43;92.39
68807;BME280;55800;54.272;18.558;2024-03-02T13:01:27;100637.84;;;12.46;92.81
68807;BME280;55800;54.272;18.558;2024-03-02T13:03:58;100641.34;;;12.47;92.43
68807;BME280;55800;54.272;18.558;2024-03-02T13:06:28;100640.22;;;12.52;92.69
68807;BME280;55800;54.272;18.558;2024-03-02T13:08:58;100639.25;;;12.53;92.91